sensor_id;sensor_type;location;lat;lon;timestamp;pressure;altitude;pressure_sealevel;temperature;humidity
51468;BME280;37545;45.302;-122.946;2023-04-30T00:02:18;100577.97;;;29.02;26.96
51468;BME280;37545;45.302;-122.946;2023-04-30T00:04:46;100565.34;;;29.06;28.18
51468;BME280;37545;45.302;-122.946;2023-04-30T00:07:18;100580.91;;;28.96;26.91
51468;BME280;37545;45.302;-122.946;2023-04-30T00:09:46;100578.41;;;28.93;27.34
51468;BME280;37545;45.302;-122.946;2023-04-30T00:12:18;100561.50;;;28.94;27.10
51468;BME280;37545;45.302;-122.946;2023-04-30T00:14:46;100562.91;;;28.84;26.65
51468;BME280;37545;45.302;-122.946;2023-04-30T00:17:15;100569.31;;;28.80;26.55
51468;BME280;37545;45.302;-122.946;2023-04-30T00:19:44;100567.44;;;28.82;27.24
51468;BME280;37545;45.302;-122.946;2023-04-30T00:22:12;100573.63;;;28.82;27.56
51468;BME280;37545;45.302;-122.946;2023-04-30T00:24:41;100570.63;;;28.71;26.87
51468;BME280;37545;45.302;-122.946;2023-04-30T00:27:10;100565.53;;;28.67;26.95
51468;BME280;37545;45.302;-122.946;2023-04-30T00:29:40;100565.34;;;28.70;26.84
51468;BME280;37545;45.302;-122.946;2023-04-30T00:32:09;100568.03;;;28.70;27.81
51468;BME280;37545;45.302;-122.946;2023-04-30T00:34:37;100561.78;;;28.71;27.76
51468;BME280;37545;45.302;-122.946;2023-04-30T00:37:06;100553.47;;;28.77;27.37
51468;BME280;37545;45.302;-122.946;2023-04-30T00:39:35;100551.75;;;28.76;27.40
51468;BME280;37545;45.302;-122.946;2023-04-30T00:42:03;100555.66;;;28.69;27.46
51468;BME280;37545;45.302;-122.946;2023-04-30T00:44:32;100561.16;;;28.66;28.32
51468;BME280;37545;45.302;-122.946;2023-04-30T00:47:02;100559.25;;;28.68;27.67
51468;BME280;37545;45.302;-122.946;2023-04-30T00:49:31;100553.78;;;28.71;27.50
51468;BME280;37545;45.302;-122.946;2023-04-30T00:52:00;100556.44;;;28.71;27.38
51468;BME280;37545;45.302;-122.946;2023-04-30T00:54:29;100550.28;;;28.70;27.71
51468;BME280;37545;45.302;-122.946;2023-04-30T00:56:58;100544.84;;;28.72;27.21
51468;BME280;37545;45.302;-122.946;2023-04-30T00:59:27;100544.84;;;28.72;26.75
51468;BME280;37545;45.302;-122.946;2023-04-30T01:01:56;100543.13;;;28.71;27.00
51468;BME280;37545;45.302;-122.946;2023-04-30T01:04:27;100544.06;;;28.70;26.58
51468;BME280;37545;45.302;-122.946;2023-04-30T01:06:56;100534.28;;;28.70;27.05
51468;BME280;37545;45.302;-122.946;2023-04-30T01:09:26;100544.84;;;28.72;26.42
51468;BME280;37545;45.302;-122.946;2023-04-30T01:12:01;100534.38;;;28.69;26.66
51468;BME280;37545;45.302;-122.946;2023-04-30T01:14:40;100537.81;;;28.71;27.23
51468;BME280;37545;45.302;-122.946;2023-04-30T01:17:17;100535.16;;;28.71;27.48
51468;BME280;37545;45.302;-122.946;2023-04-30T01:19:50;100536.16;;;28.68;27.83
51468;BME280;37545;45.302;-122.946;2023-04-30T01:22:35;100529.63;;;28.56;27.15
51468;BME280;37545;45.302;-122.946;2023-04-30T01:25:20;100541.59;;;28.48;27.71
51468;BME280;37545;45.302;-122.946;2023-04-30T01:28:05;100538.16;;;28.27;28.03
51468;BME280;37545;45.302;-122.946;2023-04-30T01:30:36;100531.53;;;28.16;27.19
51468;BME280;37545;45.302;-122.946;2023-04-30T01:33:06;100535.13;;;28.15;28.11
51468;BME280;37545;45.302;-122.946;2023-04-30T01:38:55;100536.69;;;28.19;27.57
51468;BME280;37545;45.302;-122.946;2023-04-30T01:41:33;100534.97;;;28.18;27.39
51468;BME280;37545;45.302;-122.946;2023-04-30T01:44:16;100530.03;;;28.11;28.01
51468;BME280;37545;45.302;-122.946;2023-04-30T01:46:54;100531.31;;;28.02;28.77
51468;BME280;37545;45.302;-122.946;2023-04-30T01:49:31;100523.88;;;27.90;29.48
51468;BME280;37545;45.302;-122.946;2023-04-30T01:52:11;100521.56;;;27.82;30.19
51468;BME280;37545;45.302;-122.946;2023-04-30T01:54:48;100516.88;;;27.68;30.15
51468;BME280;37545;45.302;-122.946;2023-04-30T01:57:22;100525.28;;;27.59;29.99
51468;BME280;37545;45.302;-122.946;2023-04-30T01:59:54;100518.66;;;27.49;29.82
51468;BME280;37545;45.302;-122.946;2023-04-30T02:02:23;100519.84;;;27.42;30.27
51468;BME280;37545;45.302;-122.946;2023-04-30T02:04:52;100513.88;;;27.36;29.79
51468;BME280;37545;45.302;-122.946;2023-04-30T02:07:31;100514.28;;;27.27;29.87
51468;BME280;37545;45.302;-122.946;2023-04-30T02:10:05;100519.03;;;27.19;30.03
51468;BME280;37545;45.302;-122.946;2023-04-30T02:12:33;100520.34;;;27.09;29.91
51468;BME280;37545;45.302;-122.946;2023-04-30T02:15:05;100514.50;;;27.01;29.60
51468;BME280;37545;45.302;-122.946;2023-04-30T02:17:34;100517.44;;;26.94;29.80
51468;BME280;37545;45.302;-122.946;2023-04-30T02:20:03;100518.63;;;26.87;30.17
51468;BME280;37545;45.302;-122.946;2023-04-30T02:22:31;100515.47;;;26.78;29.65
51468;BME280;37545;45.302;-122.946;2023-04-30T02:25:00;100507.97;;;26.67;29.33
51468;BME280;37545;45.302;-122.946;2023-04-30T02:27:30;100507.34;;;26.60;29.95
51468;BME280;37545;45.302;-122.946;2023-04-30T02:29:59;100508.41;;;26.56;29.79
51468;BME280;37545;45.302;-122.946;2023-04-30T02:32:29;100504.19;;;26.50;29.53
51468;BME280;37545;45.302;-122.946;2023-04-30T02:34:58;100509.59;;;26.47;30.04
51468;BME280;37545;45.302;-122.946;2023-04-30T02:37:27;100510.78;;;26.40;29.98
51468;BME280;37545;45.302;-122.946;2023-04-30T02:39:56;100515.59;;;26.30;29.70
51468;BME280;37545;45.302;-122.946;2023-04-30T02:42:24;100516.00;;;26.20;29.66
51468;BME280;37545;45.302;-122.946;2023-04-30T02:44:53;100513.84;;;26.07;28.86
51468;BME280;37545;45.302;-122.946;2023-04-30T02:47:22;100512.72;;;25.91;28.89
51468;BME280;37545;45.302;-122.946;2023-04-30T02:49:52;100524.44;;;25.84;28.79
51468;BME280;37545;45.302;-122.946;2023-04-30T02:52:20;100516.88;;;25.73;28.58
51468;BME280;37545;45.302;-122.946;2023-04-30T02:54:49;100519.00;;;25.63;28.57
51468;BME280;37545;45.302;-122.946;2023-04-30T02:57:18;100523.75;;;25.54;29.02
51468;BME280;37545;45.302;-122.946;2023-04-30T02:59:46;100521.56;;;25.41;28.75
51468;BME280;37545;45.302;-122.946;2023-04-30T03:02:15;100527.22;;;25.31;28.15
51468;BME280;37545;45.302;-122.946;2023-04-30T03:04:47;100528.53;;;25.19;29.24
51468;BME280;37545;45.302;-122.946;2023-04-30T03:07:18;100522.66;;;25.09;32.87
51468;BME280;37545;45.302;-122.946;2023-04-30T03:09:46;100520.38;;;24.98;34.29
51468;BME280;37545;45.302;-122.946;2023-04-30T03:12:15;100526.94;;;24.86;33.38
51468;BME280;37545;45.302;-122.946;2023-04-30T03:14:44;100531.69;;;24.77;34.26
51468;BME280;37545;45.302;-122.946;2023-04-30T03:17:12;100540.16;;;24.60;34.44
51468;BME280;37545;45.302;-122.946;2023-04-30T03:19:41;100546.78;;;24.45;35.81
51468;BME280;37545;45.302;-122.946;2023-04-30T03:22:11;100541.94;;;24.30;35.93
51468;BME280;37545;45.302;-122.946;2023-04-30T03:24:41;100552.94;;;24.16;36.54
51468;BME280;37545;45.302;-122.946;2023-04-30T03:27:09;100563.81;;;24.05;37.29
51468;BME280;37545;45.302;-122.946;2023-04-30T03:29:39;100556.50;;;23.85;36.18
51468;BME280;37545;45.302;-122.946;2023-04-30T03:32:08;100572.41;;;23.82;38.50
51468;BME280;37545;45.302;-122.946;2023-04-30T03:34:37;100572.72;;;23.71;39.23
51468;BME280;37545;45.302;-122.946;2023-04-30T03:37:06;100584.41;;;23.61;39.02
51468;BME280;37545;45.302;-122.946;2023-04-30T03:39:34;100582.09;;;23.50;37.23
51468;BME280;37545;45.302;-122.946;2023-04-30T03:42:05;100589.34;;;23.42;37.72
51468;BME280;37545;45.302;-122.946;2023-04-30T03:44:33;100587.03;;;23.30;37.61
51468;BME280;37545;45.302;-122.946;2023-04-30T03:47:03;100587.28;;;23.19;37.38
51468;BME280;37545;45.302;-122.946;2023-04-30T03:49:31;100594.53;;;23.11;40.16
51468;BME280;37545;45.302;-122.946;2023-04-30T03:52:00;100599.16;;;23.01;39.77
51468;BME280;37545;45.302;-122.946;2023-04-30T03:54:28;100601.06;;;22.93;37.55
51468;BME280;37545;45.302;-122.946;2023-04-30T03:56:59;100607.50;;;22.83;40.93
51468;BME280;37545;45.302;-122.946;2023-04-30T03:59:31;100608.63;;;22.72;38.34
51468;BME280;37545;45.302;-122.946;2023-04-30T04:02:00;100611.53;;;22.58;41.14
51468;BME280;37545;45.302;-122.946;2023-04-30T04:04:29;100616.31;;;22.43;40.31
51468;BME280;37545;45.302;-122.946;2023-04-30T04:06:57;100620.22;;;22.23;38.94
51468;BME280;37545;45.302;-122.946;2023-04-30T04:09:29;100616.84;;;22.15;39.34
51468;BME280;37545;45.302;-122.946;2023-04-30T04:12:02;100622.28;;;22.06;39.76
51468;BME280;37545;45.302;-122.946;2023-04-30T04:14:32;100625.19;;;21.93;37.63
51468;BME280;37545;45.302;-122.946;2023-04-30T04:17:01;100629.84;;;21.79;38.42
51468;BME280;37545;45.302;-122.946;2023-04-30T04:19:31;100630.03;;;21.70;41.60
51468;BME280;37545;45.302;-122.946;2023-04-30T04:21:59;100625.03;;;21.54;40.45
51468;BME280;37545;45.302;-122.946;2023-04-30T04:24:28;100633.03;;;21.48;41.85
51468;BME280;37545;45.302;-122.946;2023-04-30T04:26:57;100635.75;;;21.44;42.02
51468;BME280;37545;45.302;-122.946;2023-04-30T04:29:27;100642.78;;;21.43;41.34
51468;BME280;37545;45.302;-122.946;2023-04-30T04:31:59;100641.94;;;21.40;42.52
51468;BME280;37545;45.302;-122.946;2023-04-30T04:34:28;100638.56;;;21.30;39.97
51468;BME280;37545;45.302;-122.946;2023-04-30T04:36:57;100641.50;;;21.11;38.42
51468;BME280;37545;45.302;-122.946;2023-04-30T04:39:26;100634.88;;;20.87;42.52
51468;BME280;37545;45.302;-122.946;2023-04-30T04:41:54;100632.38;;;20.77;44.33
51468;BME280;37545;45.302;-122.946;2023-04-30T04:44:23;100636.00;;;20.69;44.67
51468;BME280;37545;45.302;-122.946;2023-04-30T04:46:52;100644.91;;;20.55;43.93
51468;BME280;37545;45.302;-122.946;2023-04-30T04:49:23;100650.63;;;20.21;40.88
51468;BME280;37545;45.302;-122.946;2023-04-30T04:51:52;100653.47;;;20.01;39.34
51468;BME280;37545;45.302;-122.946;2023-04-30T04:54:20;100650.94;;;19.90;38.89
51468;BME280;37545;45.302;-122.946;2023-04-30T04:56:49;100660.66;;;19.83;39.31
51468;BME280;37545;45.302;-122.946;2023-04-30T04:59:18;100653.72;;;19.79;39.32
51468;BME280;37545;45.302;-122.946;2023-04-30T05:01:47;100652.91;;;19.68;37.87
51468;BME280;37545;45.302;-122.946;2023-04-30T05:04:15;100653.84;;;19.61;39.42
51468;BME280;37545;45.302;-122.946;2023-04-30T05:06:45;100651.41;;;19.42;39.05
51468;BME280;37545;45.302;-122.946;2023-04-30T05:09:14;100659.38;;;19.27;38.39
51468;BME280;37545;45.302;-122.946;2023-04-30T05:11:43;100657.69;;;19.18;36.41
51468;BME280;37545;45.302;-122.946;2023-04-30T05:14:11;100658.66;;;19.08;38.32
51468;BME280;37545;45.302;-122.946;2023-04-30T05:16:40;100653.47;;;18.99;37.38
51468;BME280;37545;45.302;-122.946;2023-04-30T05:19:09;100660.47;;;18.95;37.29
51468;BME280;37545;45.302;-122.946;2023-04-30T05:21:37;100665.81;;;18.83;38.36
51468;BME280;37545;45.302;-122.946;2023-04-30T05:24:08;100668.44;;;18.74;37.77
51468;BME280;37545;45.302;-122.946;2023-04-30T05:26:36;100670.25;;;18.62;37.24
51468;BME280;37545;45.302;-122.946;2023-04-30T05:29:05;100679.03;;;18.49;36.47
51468;BME280;37545;45.302;-122.946;2023-04-30T05:31:33;100677.34;;;18.36;38.38
51468;BME280;37545;45.302;-122.946;2023-04-30T05:34:02;100683.50;;;18.23;38.05
51468;BME280;37545;45.302;-122.946;2023-04-30T05:36:31;100684.41;;;18.09;35.37
51468;BME280;37545;45.302;-122.946;2023-04-30T05:38:59;100682.69;;;17.99;35.42
51468;BME280;37545;45.302;-122.946;2023-04-30T05:41:29;100689.66;;;17.95;35.14
51468;BME280;37545;45.302;-122.946;2023-04-30T05:43:58;100689.69;;;17.88;35.83
51468;BME280;37545;45.302;-122.946;2023-04-30T05:46:28;100699.25;;;17.79;36.74
51468;BME280;37545;45.302;-122.946;2023-04-30T05:48:57;100702.78;;;17.66;40.23
51468;BME280;37545;45.302;-122.946;2023-04-30T05:51:25;100687.94;;;17.44;38.57
51468;BME280;37545;45.302;-122.946;2023-04-30T05:53:54;100694.03;;;17.38;38.63
51468;BME280;37545;45.302;-122.946;2023-04-30T05:56:45;100700.13;;;17.29;38.02
51468;BME280;37545;45.302;-122.946;2023-04-30T05:59:20;100702.72;;;17.25;39.82
51468;BME280;37545;45.302;-122.946;2023-04-30T06:01:48;100704.47;;;17.20;39.58
51468;BME280;37545;45.302;-122.946;2023-04-30T06:04:17;100700.09;;;17.15;42.07
51468;BME280;37545;45.302;-122.946;2023-04-30T06:06:45;100707.09;;;17.15;43.32
51468;BME280;37545;45.302;-122.946;2023-04-30T06:09:14;100710.59;;;17.14;40.55
51468;BME280;37545;45.302;-122.946;2023-04-30T06:11:44;100713.16;;;17.11;40.64
51468;BME280;37545;45.302;-122.946;2023-04-30T06:14:21;100714.06;;;17.07;38.74
51468;BME280;37545;45.302;-122.946;2023-04-30T06:16:50;100719.25;;;17.01;38.02
51468;BME280;37545;45.302;-122.946;2023-04-30T06:19:19;100710.50;;;16.92;38.01
51468;BME280;37545;45.302;-122.946;2023-04-30T06:21:48;100717.47;;;16.90;38.07
51468;BME280;37545;45.302;-122.946;2023-04-30T06:24:16;100720.09;;;16.87;39.83
51468;BME280;37545;45.302;-122.946;2023-04-30T06:26:46;100715.72;;;16.83;38.48
51468;BME280;37545;45.302;-122.946;2023-04-30T06:29:15;100722.63;;;16.76;38.52
51468;BME280;37545;45.302;-122.946;2023-04-30T06:31:44;100719.13;;;16.68;39.95
51468;BME280;37545;45.302;-122.946;2023-04-30T06:34:12;100730.38;;;16.55;39.00
51468;BME280;37545;45.302;-122.946;2023-04-30T06:36:41;100718.16;;;16.48;40.56
51468;BME280;37545;45.302;-122.946;2023-04-30T06:39:09;100719.91;;;16.43;40.55
51468;BME280;37545;45.302;-122.946;2023-04-30T06:41:38;100729.41;;;16.38;39.55
51468;BME280;37545;45.302;-122.946;2023-04-30T06:44:08;100736.38;;;16.31;42.61
51468;BME280;37545;45.302;-122.946;2023-04-30T06:46:37;100746.78;;;16.28;42.79
51468;BME280;37545;45.302;-122.946;2023-04-30T06:49:06;100745.88;;;16.23;40.90
51468;BME280;37545;45.302;-122.946;2023-04-30T06:51:34;100750.16;;;16.15;40.59
51468;BME280;37545;45.302;-122.946;2023-04-30T06:54:03;100753.59;;;16.07;40.62
51468;BME280;37545;45.302;-122.946;2023-04-30T06:56:32;100757.94;;;16.04;40.81
51468;BME280;37545;45.302;-122.946;2023-04-30T06:59:01;100757.03;;;15.97;40.35
51468;BME280;37545;45.302;-122.946;2023-04-30T07:01:31;100755.22;;;15.88;40.04
51468;BME280;37545;45.302;-122.946;2023-04-30T07:04:00;100749.94;;;15.81;40.88
51468;BME280;37545;45.302;-122.946;2023-04-30T07:06:29;100753.38;;;15.74;41.69
51468;BME280;37545;45.302;-122.946;2023-04-30T07:08:57;100750.66;;;15.66;41.68
51468;BME280;37545;45.302;-122.946;2023-04-30T07:11:26;100757.53;;;15.59;42.60
51468;BME280;37545;45.302;-122.946;2023-04-30T07:13:55;100761.84;;;15.54;41.98
51468;BME280;37545;45.302;-122.946;2023-04-30T07:16:24;100763.56;;;15.49;43.75
51468;BME280;37545;45.302;-122.946;2023-04-30T07:18:54;100770.47;;;15.47;43.79
51468;BME280;37545;45.302;-122.946;2023-04-30T07:21:24;100776.50;;;15.41;43.59
51468;BME280;37545;45.302;-122.946;2023-04-30T07:23:53;100764.28;;;15.36;44.10
51468;BME280;37545;45.302;-122.946;2023-04-30T07:26:22;100773.78;;;15.32;43.78
51468;BME280;37545;45.302;-122.946;2023-04-30T07:28:51;100772.00;;;15.26;44.17
51468;BME280;37545;45.302;-122.946;2023-04-30T07:31:20;100769.31;;;15.20;43.61
51468;BME280;37545;45.302;-122.946;2023-04-30T07:33:49;100769.28;;;15.16;44.16
51468;BME280;37545;45.302;-122.946;2023-04-30T07:36:19;100770.09;;;15.10;48.84
51468;BME280;37545;45.302;-122.946;2023-04-30T07:38:48;100778.69;;;15.04;50.78
51468;BME280;37545;45.302;-122.946;2023-04-30T07:41:16;100779.50;;;14.97;49.10
51468;BME280;37545;45.302;-122.946;2023-04-30T07:43:45;100787.28;;;14.94;49.87
51468;BME280;37545;45.302;-122.946;2023-04-30T07:46:13;100781.16;;;14.89;48.36
51468;BME280;37545;45.302;-122.946;2023-04-30T07:48:42;100781.09;;;14.84;47.58
51468;BME280;37545;45.302;-122.946;2023-04-30T07:51:10;100786.19;;;14.77;46.88
51468;BME280;37545;45.302;-122.946;2023-04-30T07:53:41;100791.34;;;14.71;47.38
51468;BME280;37545;45.302;-122.946;2023-04-30T07:56:09;100799.03;;;14.63;47.43
51468;BME280;37545;45.302;-122.946;2023-04-30T07:58:38;100791.94;;;14.53;48.83
51468;BME280;37545;45.302;-122.946;2023-04-30T08:01:07;100795.25;;;14.41;48.60
51468;BME280;37545;45.302;-122.946;2023-04-30T08:03:35;100796.03;;;14.37;48.92
51468;BME280;37545;45.302;-122.946;2023-04-30T08:06:04;100802.03;;;14.33;49.64
51468;BME280;37545;45.302;-122.946;2023-04-30T08:08:33;100799.41;;;14.30;51.07
51468;BME280;37545;45.302;-122.946;2023-04-30T08:11:03;100810.59;;;14.24;51.42
51468;BME280;37545;45.302;-122.946;2023-04-30T08:13:32;100805.31;;;14.18;52.16
51468;BME280;37545;45.302;-122.946;2023-04-30T08:16:02;100806.00;;;14.08;51.21
51468;BME280;37545;45.302;-122.946;2023-04-30T08:18:30;100791.81;;;13.89;52.46
51468;BME280;37545;45.302;-122.946;2023-04-30T08:21:06;100808.25;;;13.86;52.83
51468;BME280;37545;45.302;-122.946;2023-04-30T08:23:43;100812.44;;;13.78;54.65
51468;BME280;37545;45.302;-122.946;2023-04-30T08:26:13;100807.13;;;13.72;55.52
51468;BME280;37545;45.302;-122.946;2023-04-30T08:28:42;100796.59;;;13.64;55.51
51468;BME280;37545;45.302;-122.946;2023-04-30T08:31:11;100807.81;;;13.61;55.93
51468;BME280;37545;45.302;-122.946;2023-04-30T08:33:40;100806.94;;;13.61;56.13
51468;BME280;37545;45.302;-122.946;2023-04-30T08:36:08;100800.06;;;13.63;56.82
51468;BME280;37545;45.302;-122.946;2023-04-30T08:38:37;100802.66;;;13.63;57.24
51468;BME280;37545;45.302;-122.946;2023-04-30T08:41:10;100796.56;;;13.62;57.48
51468;BME280;37545;45.302;-122.946;2023-04-30T08:43:41;100796.56;;;13.62;58.16
51468;BME280;37545;45.302;-122.946;2023-04-30T08:46:11;100792.22;;;13.61;58.08
51468;BME280;37545;45.302;-122.946;2023-04-30T08:48:41;100791.34;;;13.61;58.49
51468;BME280;37545;45.302;-122.946;2023-04-30T08:51:09;100786.91;;;13.55;60.21
51468;BME280;37545;45.302;-122.946;2023-04-30T08:53:40;100785.09;;;13.51;60.17
51468;BME280;37545;45.302;-122.946;2023-04-30T08:56:10;100791.16;;;13.50;61.20
51468;BME280;37545;45.302;-122.946;2023-04-30T08:58:41;100794.63;;;13.49;62.38
51468;BME280;37545;45.302;-122.946;2023-04-30T09:01:10;100778.09;;;13.47;61.53
51468;BME280;37545;45.302;-122.946;2023-04-30T09:03:38;100789.38;;;13.48;61.32
51468;BME280;37545;45.302;-122.946;2023-04-30T09:06:07;100796.09;;;13.36;62.79
51468;BME280;37545;45.302;-122.946;2023-04-30T09:08:43;100802.00;;;13.28;62.55
51468;BME280;37545;45.302;-122.946;2023-04-30T09:11:25;100795.75;;;13.19;62.82
51468;BME280;37545;45.302;-122.946;2023-04-30T09:13:57;100800.03;;;13.17;61.99
51468;BME280;37545;45.302;-122.946;2023-04-30T09:16:26;100803.47;;;13.16;63.18
51468;BME280;37545;45.302;-122.946;2023-04-30T09:18:56;100799.91;;;13.11;63.57
51468;BME280;37545;45.302;-122.946;2023-04-30T09:21:31;100798.13;;;13.09;64.43
51468;BME280;37545;45.302;-122.946;2023-04-30T09:24:01;100802.38;;;13.04;65.15
51468;BME280;37545;45.302;-122.946;2023-04-30T09:26:31;100800.50;;;12.96;65.30
51468;BME280;37545;45.302;-122.946;2023-04-30T09:29:03;100793.50;;;12.94;66.04
51468;BME280;37545;45.302;-122.946;2023-04-30T09:31:36;100800.41;;;12.92;66.79
51468;BME280;37545;45.302;-122.946;2023-04-30T09:34:05;100803.81;;;12.91;66.65
51468;BME280;37545;45.302;-122.946;2023-04-30T09:36:34;100805.50;;;12.89;67.38
51468;BME280;37545;45.302;-122.946;2023-04-30T09:39:06;100809.78;;;12.87;67.62
51468;BME280;37545;45.302;-122.946;2023-04-30T09:41:37;100814.88;;;12.81;69.20
51468;BME280;37545;45.302;-122.946;2023-04-30T09:44:27;100811.28;;;12.75;69.50
51468;BME280;37545;45.302;-122.946;2023-04-30T09:47:01;100809.50;;;12.71;70.46
51468;BME280;37545;45.302;-122.946;2023-04-30T09:49:36;100806.78;;;12.67;71.18
51468;BME280;37545;45.302;-122.946;2023-04-30T09:52:05;100805.69;;;12.57;70.99
51468;BME280;37545;45.302;-122.946;2023-04-30T09:54:35;100805.69;;;12.57;71.20
51468;BME280;37545;45.302;-122.946;2023-04-30T09:57:03;100808.28;;;12.57;71.24
51468;BME280;37545;45.302;-122.946;2023-04-30T09:59:37;100807.47;;;12.60;70.94
51468;BME280;37545;45.302;-122.946;2023-04-30T10:02:07;100799.78;;;12.63;70.63
51468;BME280;37545;45.302;-122.946;2023-04-30T10:04:37;100798.97;;;12.65;70.03
51468;BME280;37545;45.302;-122.946;2023-04-30T10:07:08;100798.97;;;12.65;70.80
51468;BME280;37545;45.302;-122.946;2023-04-30T10:09:41;100793.78;;;12.65;70.68
51468;BME280;37545;45.302;-122.946;2023-04-30T10:12:13;100793.78;;;12.65;70.60
51468;BME280;37545;45.302;-122.946;2023-04-30T10:14:50;100790.31;;;12.66;70.81
51468;BME280;37545;45.302;-122.946;2023-04-30T10:17:20;100792.13;;;12.70;71.65
51468;BME280;37545;45.302;-122.946;2023-04-30T10:19:51;100797.28;;;12.67;71.02
51468;BME280;37545;45.302;-122.946;2023-04-30T10:22:22;100792.09;;;12.67;70.31
51468;BME280;37545;45.302;-122.946;2023-04-30T10:24:51;100794.69;;;12.67;70.95
51468;BME280;37545;45.302;-122.946;2023-04-30T10:27:21;100797.28;;;12.69;70.30
51468;BME280;37545;45.302;-122.946;2023-04-30T10:29:51;100798.91;;;12.62;71.95
51468;BME280;37545;45.302;-122.946;2023-04-30T10:32:21;100792.59;;;12.51;72.50
51468;BME280;37545;45.302;-122.946;2023-04-30T10:34:54;100793.16;;;12.38;74.12
51468;BME280;37545;45.302;-122.946;2023-04-30T10:37:33;100786.91;;;12.28;74.53
51468;BME280;37545;45.302;-122.946;2023-04-30T10:40:04;100793.66;;;12.21;77.55
51468;BME280;37545;45.302;-122.946;2023-04-30T10:42:34;100798.56;;;12.10;77.81
51468;BME280;37545;45.302;-122.946;2023-04-30T10:45:09;100789.66;;;11.99;79.61
51468;BME280;37545;45.302;-122.946;2023-04-30T10:47:41;100791.19;;;11.91;79.34
51468;BME280;37545;45.302;-122.946;2023-04-30T10:50:10;100797.06;;;11.85;80.54
51468;BME280;37545;45.302;-122.946;2023-04-30T10:52:39;100797.81;;;11.80;81.91
51468;BME280;37545;45.302;-122.946;2023-04-30T10:55:08;100795.22;;;11.80;81.71
51468;BME280;37545;45.302;-122.946;2023-04-30T10:57:46;100796.09;;;11.80;82.65
51468;BME280;37545;45.302;-122.946;2023-04-30T11:00:28;100800.34;;;11.78;81.84
51468;BME280;37545;45.302;-122.946;2023-04-30T11:06:49;100797.72;;;11.77;83.11
51468;BME280;37545;45.302;-122.946;2023-04-30T11:09:34;100798.56;;;11.77;82.85
51468;BME280;37545;45.302;-122.946;2023-04-30T11:12:09;100796.03;;;11.79;81.55
51468;BME280;37545;45.302;-122.946;2023-04-30T11:14:43;100801.41;;;11.86;79.97
51468;BME280;37545;45.302;-122.946;2023-04-30T11:17:22;100786.63;;;11.82;80.18
51468;BME280;37545;45.302;-122.946;2023-04-30T11:19:52;100795.72;;;12.00;80.03
51468;BME280;37545;45.302;-122.946;2023-04-30T11:22:25;100799.28;;;12.05;80.13
51468;BME280;37545;45.302;-122.946;2023-04-30T11:25:03;100795.94;;;12.09;78.21
51468;BME280;37545;45.302;-122.946;2023-04-30T11:27:33;100795.13;;;12.11;77.54
51468;BME280;37545;45.302;-122.946;2023-04-30T11:30:03;100803.00;;;12.14;77.80
51468;BME280;37545;45.302;-122.946;2023-04-30T11:32:45;100804.78;;;12.17;77.82
51468;BME280;37545;45.302;-122.946;2023-04-30T11:35:16;100803.13;;;12.19;77.55
51468;BME280;37545;45.302;-122.946;2023-04-30T11:37:46;100812.63;;;12.20;77.61
51468;BME280;37545;45.302;-122.946;2023-04-30T11:40:15;100812.63;;;12.20;77.47
51468;BME280;37545;45.302;-122.946;2023-04-30T11:42:44;100810.97;;;12.22;77.20
51468;BME280;37545;45.302;-122.946;2023-04-30T11:45:15;100803.97;;;12.20;77.77
51468;BME280;37545;45.302;-122.946;2023-04-30T11:47:48;100805.81;;;12.24;77.76
51468;BME280;37545;45.302;-122.946;2023-04-30T11:50:18;100792.78;;;12.22;77.67
51468;BME280;37545;45.302;-122.946;2023-04-30T11:52:53;100793.75;;;12.26;77.69
51468;BME280;37545;45.302;-122.946;2023-04-30T11:55:24;100795.50;;;12.27;76.88
51468;BME280;37545;45.302;-122.946;2023-04-30T11:57:55;100801.56;;;12.27;78.55
51468;BME280;37545;45.302;-122.946;2023-04-30T12:00:26;100794.69;;;12.29;77.57
51468;BME280;37545;45.302;-122.946;2023-04-30T12:02:59;100784.25;;;12.26;78.52
51468;BME280;37545;45.302;-122.946;2023-04-30T12:05:28;100787.66;;;12.25;77.74
51468;BME280;37545;45.302;-122.946;2023-04-30T12:08:00;100781.66;;;12.26;78.04
51468;BME280;37545;45.302;-122.946;2023-04-30T12:10:30;100779.06;;;12.26;78.03
51468;BME280;37545;45.302;-122.946;2023-04-30T12:12:59;100783.34;;;12.24;77.93
51468;BME280;37545;45.302;-122.946;2023-04-30T12:15:28;100786.00;;;12.27;77.70
51468;BME280;37545;45.302;-122.946;2023-04-30T12:18:01;100781.81;;;12.32;78.77
51468;BME280;37545;45.302;-122.946;2023-04-30T12:20:39;100778.34;;;12.33;78.46
51468;BME280;37545;45.302;-122.946;2023-04-30T12:23:08;100769.81;;;12.38;77.99
51468;BME280;37545;45.302;-122.946;2023-04-30T12:25:40;100769.06;;;12.43;78.32
51468;BME280;37545;45.302;-122.946;2023-04-30T12:28:09;100770.84;;;12.46;78.04
51468;BME280;37545;45.302;-122.946;2023-04-30T12:30:38;100775.31;;;12.51;76.81
51468;BME280;37545;45.302;-122.946;2023-04-30T12:33:11;100765.72;;;12.49;76.49
51468;BME280;37545;45.302;-122.946;2023-04-30T12:35:42;100777.13;;;12.57;77.07
51468;BME280;37545;45.302;-122.946;2023-04-30T12:38:15;100772.88;;;12.59;77.62
51468;BME280;37545;45.302;-122.946;2023-04-30T12:40:47;100771.19;;;12.61;77.20
51468;BME280;37545;45.302;-122.946;2023-04-30T12:43:16;100766.91;;;12.63;76.30
51468;BME280;37545;45.302;-122.946;2023-04-30T12:45:47;100770.41;;;12.65;76.65